Time;durP1;ratioP1;P1;durP2;ratioP2;P2;SDS_P1;SDS_P2;PMS_P1;PMS_P2;Temp;Humidity;BMP_temperature;BMP_pressure;BME280_temperature;BME280_humidity;BME280_pressure;Samples;Min_cycle;Max_cycle;Signal;HPM_P1;HPM_P2
2022/09/21 00:00:52;;;;;;;17.27;11.05;;;;;;;24.00;46.74;98740.72;2088553;28;21031;-48
2022/09/21 00:01:55;;;;;;;16.25;11.55;;;;;;;24.00;46.54;98744.25;2088874;28;20091;-46
2022/09/21 00:02:57;;;;;;;16.60;10.02;;;;;;;23.99;46.47;98744.50;2093140;28;20048;-45
2022/09/21 00:04:00;;;;;;;16.25;10.27;;;;;;;24.00;46.67;98751.56;2092900;28;20080;-45
2022/09/21 00:05:01;;;;;;;16.67;11.27;;;;;;;23.99;46.43;98747.22;2095137;28;20090;-46
2022/09/21 00:06:04;;;;;;;14.43;10.52;;;;;;;23.98;46.76;98743.66;2096116;28;20053;-46
2022/09/21 00:07:06;;;;;;;16.92;11.07;;;;;;;23.99;46.49;98752.63;2097526;28;20045;-45
2022/09/21 00:08:10;;;;;;;17.35;11.75;;;;;;;23.97;46.61;98750.16;2096883;28;21130;-46
2022/09/21 00:09:11;;;;;;;18.55;11.88;;;;;;;23.98;46.59;98749.06;2096550;28;20055;-47
2022/09/21 00:10:12;;;;;;;15.10;9.70;;;;;;;23.97;46.61;98749.31;2096486;28;20135;-47
2022/09/21 00:11:17;;;;;;;15.85;10.35;;;;;;;23.96;46.67;98753.91;2096377;28;20466;-46
2022/09/21 00:12:18;;;;;;;17.67;11.75;;;;;;;23.96;46.75;98753.91;2096331;28;20044;-47
2022/09/21 00:13:20;;;;;;;15.75;10.48;;;;;;;23.98;46.65;98751.78;2095767;28;20409;-48
2022/09/21 00:14:21;;;;;;;17.70;11.32;;;;;;;23.96;46.76;98753.91;2096885;28;20158;-45
2022/09/21 00:15:23;;;;;;;16.75;10.68;;;;;;;23.97;46.71;98752.03;2091107;28;20055;-47
2022/09/21 00:16:25;;;;;;;14.15;10.40;;;;;;;23.98;46.64;98756.38;2089883;28;20113;-48
2022/09/21 00:17:27;;;;;;;18.33;10.73;;;;;;;23.96;46.81;98753.91;2093379;28;20052;-48
2022/09/21 00:18:29;;;;;;;15.15;10.23;;;;;;;23.97;46.59;98757.44;2091808;28;20049;-48
2022/09/21 00:19:30;;;;;;;17.30;10.57;;;;;;;23.96;46.72;98755.78;2095223;28;20048;-48
2022/09/21 00:20:32;;;;;;;15.02;10.63;;;;;;;23.97;46.66;98755.56;2095542;28;20044;-46
2022/09/21 00:21:33;;;;;;;16.17;10.25;;;;;;;23.97;46.83;98757.44;2095673;28;20086;-46
2022/09/21 00:22:35;;;;;;;16.38;10.77;;;;;;;23.98;46.57;98759.91;2094604;28;20055;-49
2022/09/21 00:23:37;;;;;;;17.08;10.68;;;;;;;23.97;46.69;98752.84;2095244;28;21800;-47
2022/09/21 00:24:38;;;;;;;14.35;9.98;;;;;;;23.94;46.82;98757.94;2093084;28;20555;-48
2022/09/21 00:25:39;;;;;;;17.33;10.93;;;;;;;23.94;46.62;98756.03;2094362;28;20413;-47
2022/09/21 00:26:41;;;;;;;14.73;9.35;;;;;;;23.95;46.61;98751.44;2093727;28;20044;-47
2022/09/21 00:27:42;;;;;;;14.98;9.68;;;;;;;23.95;46.66;98752.25;2094091;28;20073;-47
2022/09/21 00:28:44;;;;;;;15.15;10.15;;;;;;;23.95;46.81;98760.38;2093281;28;21246;-46
2022/09/21 00:29:45;;;;;;;14.82;9.57;;;;;;;23.95;46.69;98751.44;2093697;28;20060;-46
2022/09/21 00:30:50;;;;;;;12.77;10.60;;;;;;;23.93;46.79;98756.25;2092337;28;20127;-46
2022/09/21 00:31:52;;;;;;;15.70;10.48;;;;;;;23.92;46.75;98755.44;2093467;28;20059;-46
2022/09/21 00:32:54;;;;;;;15.82;10.02;;;;;;;23.94;46.97;98757.94;2092014;28;20136;-46
2022/09/21 00:33:57;;;;;;;16.92;10.90;;;;;;;23.91;47.03;98759.22;2096476;28;20052;-46
2022/09/21 00:34:57;;;;;;;14.38;9.38;;;;;;;23.91;46.85;98752.97;2093570;28;20056;-47
2022/09/21 00:36:03;;;;;;;15.85;9.77;;;;;;;23.90;46.80;98754.84;2094522;28;20043;-46
2022/09/21 00:37:05;;;;;;;17.75;10.05;;;;;;;23.92;46.73;98754.63;2089912;28;20056;-46
2022/09/21 00:38:06;;;;;;;16.95;10.73;;;;;;;23.92;46.94;98754.63;2091874;28;20048;-46
2022/09/21 00:39:09;;;;;;;12.65;9.25;;;;;;;23.91;46.99;98752.97;2094353;28;20605;-47
2022/09/21 00:40:10;;;;;;;17.50;9.95;;;;;;;23.88;46.92;98748.84;2092724;28;20040;-47
2022/09/21 00:41:12;;;;;;;13.98;8.80;;;;;;;23.90;46.98;98754.03;2096218;28;20129;-47
2022/09/21 00:42:18;;;;;;;13.27;9.00;;;;;;;23.90;46.85;98745.91;2098189;28;20128;-47
2022/09/21 00:43:19;;;;;;;13.68;9.88;;;;;;;23.90;47.07;98751.31;2092161;28;20497;-47
2022/09/21 00:44:27;;;;;;;11.77;8.48;;;;;;;23.89;46.93;98750.50;2094518;28;20113;-46
2022/09/21 00:45:29;;;;;;;13.80;9.63;;;;;;;23.88;47.12;98745.31;2092594;28;20048;-49
2022/09/21 00:46:31;;;;;;;13.90;8.88;;;;;;;23.85;46.99;98752.84;2087242;28;20052;-47
2022/09/21 00:47:36;;;;;;;16.73;10.05;;;;;;;23.90;47.12;98745.91;2088237;28;20047;-48
2022/09/21 00:48:39;;;;;;;13.07;9.55;;;;;;;23.91;47.01;98752.97;2091473;28;20044;-50
2022/09/21 00:49:43;;;;;;;14.05;9.93;;;;;;;23.89;47.00;98752.38;2091444;28;20063;-46
2022/09/21 00:50:52;;;;;;;17.55;10.20;;;;;;;23.89;47.16;98749.69;2092430;28;20071;-47
2022/09/21 00:51:56;;;;;;;16.38;9.00;;;;;;;23.89;46.94;98747.78;2094494;28;20500;-47
2022/09/21 00:52:57;;;;;;;16.25;9.68;;;;;;;23.86;47.18;98740.13;2096163;28;20051;-45
2022/09/21 00:54:03;;;;;;;13.45;9.75;;;;;;;23.89;47.06;98749.69;2094508;28;20105;-46
2022/09/21 00:55:11;;;;;;;12.80;8.50;;;;;;;23.90;46.93;98741.28;2096732;28;20472;-45
2022/09/21 00:56:15;;;;;;;12.30;9.00;;;;;;;23.86;47.06;98746.38;2092287;28;20063;-46
2022/09/21 00:57:20;;;;;;;13.90;8.98;;;;;;;23.88;47.04;98748.03;2089910;28;20144;-46
2022/09/21 00:58:27;;;;;;;11.77;7.90;;;;;;;23.90;47.05;98748.59;2093228;28;20053;-46
2022/09/21 00:59:30;;;;;;;12.48;7.85;;;;;;;23.86;46.97;98740.13;2096315;28;20090;-49
2022/09/21 01:00:31;;;;;;;15.13;9.55;;;;;;;23.83;47.23;98741.41;2092854;28;20219;-47
2022/09/21 01:01:33;;;;;;;13.52;8.63;;;;;;;23.85;47.04;98750.16;2091099;28;20045;-47
2022/09/21 01:02:35;;;;;;;10.60;8.35;;;;;;;23.86;47.13;98749.06;2093607;28;21057;-45
2022/09/21 01:03:35;;;;;;;13.13;9.00;;;;;;;23.85;47.04;98744.72;2094398;28;20118;-48
2022/09/21 01:04:39;;;;;;;12.15;8.43;;;;;;;23.88;47.14;98745.31;2095219;28;20139;-45
2022/09/21 01:05:40;;;;;;;11.13;7.93;;;;;;;23.87;46.81;98747.19;2094152;28;20060;-46
2022/09/21 01:06:42;;;;;;;11.65;8.77;;;;;;;23.84;47.13;98745.78;2092715;28;20062;-46
2022/09/21 01:07:46;;;;;;;14.40;9.63;;;;;;;23.86;46.88;98745.56;2095033;28;20060;-46
2022/09/21 01:08:51;;;;;;;11.70;7.93;;;;;;;23.86;46.92;98750.97;2095649;28;20082;-46
2022/09/21 01:09:56;;;;;;;13.20;8.93;;;;;;;23.83;47.05;98749.56;2094988;28;21022;-46
2022/09/21 01:11:25;;;;;;;12.25;8.27;;;;;;;23.80;47.12;98744.59;2096240;28;20132;-45
2022/09/21 01:12:40;;;;;;;12.60;8.73;;;;;;;23.80;47.16;98749.19;2092398;28;20122;-46
2022/09/21 01:13:51;;;;;;;10.57;7.45;;;;;;;23.82;47.24;98747.91;2087845;28;20048;-45
2022/09/21 01:15:02;;;;;;;15.73;9.68;;;;;;;23.84;47.23;98748.47;2094474;28;20044;-47
2022/09/21 01:16:06;;;;;;;;;;;;;;;23.71;47.57;98747.88;2080556;28;20053;-47
2022/09/21 01:17:15;;;;;;;10.75;7.05;;;;;;;23.74;47.46;98748.25;2089430;28;20429;-47
2022/09/21 01:18:21;;;;;;;14.88;8.75;;;;;;;23.78;47.29;98741.31;2085467;28;21169;-46
2022/09/21 01:19:38;;;;;;;12.38;8.68;;;;;;;23.78;47.29;98748.59;2096544;28;20101;-48
2022/09/21 01:21:07;;;;;;;12.20;7.82;;;;;;;23.75;47.18;98749.91;2093686;28;20064;-46
2022/09/21 01:22:17;;;;;;;15.20;8.10;;;;;;;23.74;47.27;98750.16;2091813;28;20056;-47
2022/09/21 01:23:43;;;;;;;10.25;7.40;;;;;;;23.75;47.29;98746.38;2095783;28;20051;-46
2022/09/21 01:24:56;;;;;;;13.07;8.35;;;;;;;23.77;47.10;98747.78;2094955;28;20055;-47
2022/09/21 01:26:07;;;;;;;11.32;8.10;;;;;;;23.77;47.41;98757.81;2098190;28;25722;-47
2022/09/21 01:27:35;;;;;;;15.13;8.20;;;;;;;23.75;47.38;98754.50;2096894;28;20482;-45
2022/09/21 01:29:03;;;;;;;11.77;7.60;;;;;;;23.70;47.46;98752.44;2094556;28;20055;-47
2022/09/21 01:30:07;;;;;;;11.70;7.43;;;;;;;23.75;47.62;98755.31;2084835;28;20040;-47
2022/09/21 01:31:13;;;;;;;11.18;6.82;;;;;;;23.76;47.42;98754.25;2092376;28;20060;-47
2022/09/21 01:32:20;;;;;;;10.73;7.97;;;;;;;23.77;47.39;98763.22;2095500;28;20044;-45
2022/09/21 01:33:25;;;;;;;8.73;7.05;;;;;;;23.79;47.42;98761.06;2094346;28;20048;-46
2022/09/21 01:34:31;;;;;;;12.73;7.90;;;;;;;23.78;47.17;98757.56;2095278;28;20049;-46
2022/09/21 01:35:37;;;;;;;11.10;7.60;;;;;;;23.79;47.36;98761.06;2091091;28;20052;-47
2022/09/21 01:36:42;;;;;;;12.98;8.02;;;;;;;23.78;47.24;98754.84;2095546;28;20044;-46
2022/09/21 01:37:46;;;;;;;11.52;7.55;;;;;;;23.77;47.14;98758.63;2092701;28;20097;-48
2022/09/21 01:38:51;;;;;;;12.15;8.02;;;;;;;23.77;47.28;98761.31;2092537;28;20731;-46
2022/09/21 01:39:58;;;;;;;11.80;7.88;;;;;;;23.77;47.47;98757.81;2098154;28;20097;-46
2022/09/21 01:41:03;;;;;;;10.40;7.70;;;;;;;23.78;47.45;98759.44;2095991;28;20114;-45
2022/09/21 01:42:06;;;;;;;10.63;7.50;;;;;;;23.78;47.14;98759.44;2094490;28;20040;-47
2022/09/21 01:43:13;;;;;;;10.57;6.97;;;;;;;23.76;47.44;98756.94;2091284;28;20050;-46
2022/09/21 01:44:19;;;;;;;12.32;8.52;;;;;;;23.76;47.41;98758.84;2089794;28;20147;-45
2022/09/21 01:45:25;;;;;;;11.73;7.97;;;;;;;23.75;47.49;98755.31;2093080;28;20048;-46
2022/09/21 01:46:30;;;;;;;13.60;8.23;;;;;;;23.77;47.22;98755.09;2090816;28;20047;-45
2022/09/21 01:47:32;;;;;;;12.05;8.10;;;;;;;23.78;47.23;98762.97;2094356;28;20056;-47
2022/09/21 01:48:37;;;;;;;10.68;7.07;;;;;;;23.75;47.51;98754.50;2093604;28;20055;-47
2022/09/21 01:49:44;;;;;;;9.32;6.88;;;;;;;23.77;47.18;98755.91;2094252;28;20040;-47
2022/09/21 01:50:50;;;;;;;10.23;7.10;;;;;;;23.74;47.37;98755.56;2093423;28;20045;-46
2022/09/21 01:52:00;;;;;;;10.65;7.15;;;;;;;23.75;47.38;98755.31;2096043;28;20491;-47
2022/09/21 01:53:07;;;;;;;10.48;6.75;;;;;;;23.74;47.65;98763.69;2093221;28;20095;-46
2022/09/21 01:54:14;;;;;;;11.73;7.13;;;;;;;23.74;47.55;98755.56;2093744;28;20037;-46
2022/09/21 01:55:20;;;;;;;9.85;7.43;;;;;;;23.73;47.45;98752.00;2096643;28;20076;-45
2022/09/21 01:56:26;;;;;;;10.23;7.72;;;;;;;23.77;47.21;98755.09;2094620;28;20052;-49
2022/09/21 01:57:34;;;;;;;10.57;7.63;;;;;;;23.78;47.36;98760.25;2095380;28;20054;-47
2022/09/21 01:58:42;;;;;;;10.98;7.05;;;;;;;23.76;47.51;98766.97;2088538;28;20445;-48
2022/09/21 01:59:50;;;;;;;14.80;7.55;;;;;;;23.74;47.46;98760.97;2086651;28;20198;-49
2022/09/21 02:00:54;;;;;;;8.90;6.25;;;;;;;23.72;47.46;98760.38;2092725;28;20056;-45
2022/09/21 02:01:59;;;;;;;9.13;6.10;;;;;;;23.72;47.52;98765.78;2093027;28;20045;-47
2022/09/21 02:03:06;;;;;;;8.95;6.30;;;;;;;23.73;47.46;98754.72;2093749;28;20562;-48
2022/09/21 02:04:11;;;;;;;10.38;7.25;;;;;;;23.74;47.33;98759.09;2093734;28;20123;-46
2022/09/21 02:05:15;;;;;;;9.27;6.47;;;;;;;23.76;47.48;98761.53;2094310;28;20052;-45
2022/09/21 02:06:18;;;;;;;10.65;7.20;;;;;;;23.74;47.49;98763.69;2090751;28;20094;-46
2022/09/21 02:07:19;;;;;;;11.75;7.70;;;;;;;23.74;47.59;98758.28;2098296;28;20051;-47
2022/09/21 02:08:21;;;;;;;10.68;7.05;;;;;;;23.74;47.59;98759.09;2094154;28;20059;-47
2022/09/21 02:09:23;;;;;;;9.18;7.45;;;;;;;23.75;47.53;98759.91;2096664;28;20659;-47
2022/09/21 02:10:30;;;;;;;8.68;6.07;;;;;;;23.72;47.67;98755.78;2097685;28;20075;-46
2022/09/21 02:11:31;;;;;;;10.50;6.57;;;;;;;23.73;47.38;98756.59;2094231;28;20083;-45
2022/09/21 02:12:33;;;;;;;11.02;7.40;;;;;;;23.73;47.40;98752.00;2094302;28;20067;-46
2022/09/21 02:13:36;;;;;;;9.90;7.15;;;;;;;23.74;47.60;98760.97;2090660;28;20084;-47
2022/09/21 02:14:39;;;;;;;10.13;6.35;;;;;;;23.72;47.56;98760.38;2096041;28;20055;-47
2022/09/21 02:16:00;;;;;;;10.65;7.15;;;;;;;23.66;47.42;98758.59;2096480;28;20040;-50
2022/09/21 02:17:11;;;;;;;8.45;5.95;;;;;;;23.67;47.78;98755.63;2095748;28;20386;-47
2022/09/21 02:18:21;;;;;;;10.10;6.30;;;;;;;23.68;47.58;98753.72;2083836;28;20052;-46
2022/09/21 02:19:33;;;;;;;10.50;6.68;;;;;;;23.67;47.81;98752.91;2094401;28;20080;-46
2022/09/21 02:20:39;;;;;;;7.88;6.53;;;;;;;23.69;47.66;98750.81;2097041;28;20226;-46
2022/09/21 02:21:51;;;;;;;9.23;6.55;;;;;;;23.69;47.54;98756.22;2096931;28;20127;-48
2022/09/21 02:23:05;;;;;;;8.98;6.25;;;;;;;23.66;47.63;98758.59;2098845;28;20077;-46
2022/09/21 02:24:12;;;;;;;9.73;6.20;;;;;;;23.65;47.71;98755.03;2095576;28;20051;-46
2022/09/21 02:25:18;;;;;;;8.98;6.10;;;;;;;23.68;47.70;98762.72;2094234;28;20486;-46
2022/09/21 02:26:27;;;;;;;9.32;6.90;;;;;;;23.66;47.56;98750.47;2092775;28;20044;-46
2022/09/21 02:27:35;;;;;;;11.00;6.35;;;;;;;23.63;47.76;98757.16;2094511;28;20072;-47
2022/09/21 02:28:42;;;;;;;8.63;6.43;;;;;;;23.64;47.61;98751.50;2090737;28;20540;-46
2022/09/21 02:29:49;;;;;;;10.45;5.95;;;;;;;23.66;47.78;98756.69;2084535;28;21096;-46
2022/09/21 02:31:01;;;;;;;8.85;5.85;;;;;;;23.67;47.70;98752.91;2091410;28;20113;-49
2022/09/21 02:32:08;;;;;;;7.55;5.40;;;;;;;23.67;47.67;98747.50;2096035;28;20425;-46
2022/09/21 02:33:12;;;;;;;8.80;5.78;;;;;;;23.70;47.61;98757.03;2092618;28;20052;-46
2022/09/21 02:34:20;;;;;;;9.07;6.05;;;;;;;23.65;47.64;98755.03;2095976;28;20395;-45
2022/09/21 02:35:31;;;;;;;8.75;5.60;;;;;;;23.66;47.73;98758.59;2094164;28;20055;-48
2022/09/21 02:36:42;;;;;;;9.93;5.68;;;;;;;23.66;47.56;98751.28;2090429;28;20048;-47
2022/09/21 02:37:50;;;;;;;10.13;6.45;;;;;;;23.66;47.86;98756.69;2093687;28;20052;-47
2022/09/21 02:38:56;;;;;;;9.85;6.68;;;;;;;23.67;47.58;98758.34;2092971;28;20056;-46
2022/09/21 02:40:03;;;;;;;10.85;6.88;;;;;;;23.67;47.87;98752.09;2092363;28;20897;-48
2022/09/21 02:41:13;;;;;;;9.10;6.35;;;;;;;23.63;47.88;98757.16;2093398;28;20049;-46
2022/09/21 02:42:17;;;;;;;8.27;5.47;;;;;;;23.59;48.01;98761.38;2094960;28;20153;-48
2022/09/21 02:43:26;;;;;;;7.95;5.57;;;;;;;23.61;47.82;98754.69;2089698;28;20480;-47
2022/09/21 02:44:33;;;;;;;9.05;6.97;;;;;;;23.64;47.81;98756.91;2090323;28;20063;-47
2022/09/21 02:45:42;;;;;;;6.50;5.35;;;;;;;23.62;47.89;98752.78;2094027;28;20090;-50
2022/09/21 02:46:49;;;;;;;7.82;5.22;;;;;;;23.63;47.86;98751.75;2094112;28;20043;-46
2022/09/21 02:47:58;;;;;;;8.85;5.65;;;;;;;23.66;47.63;98751.28;2086924;28;20048;-49
2022/09/21 02:49:04;;;;;;;9.20;5.45;;;;;;;23.65;47.81;98749.59;2086390;28;20049;-46
2022/09/21 02:50:11;;;;;;;9.80;5.97;;;;;;;23.64;47.61;98756.09;2090485;28;20044;-46
2022/09/21 02:51:17;;;;;;;7.38;5.60;;;;;;;23.64;47.84;98758.81;2093214;28;20076;-46
2022/09/21 02:52:20;;;;;;;8.90;5.60;;;;;;;23.62;47.82;98758.19;2092659;28;20044;-47
2022/09/21 02:53:27;;;;;;;8.13;5.43;;;;;;;23.64;47.78;98758.81;2094974;28;20135;-46
2022/09/21 02:54:32;;;;;;;7.57;5.07;;;;;;;23.63;47.70;98757.16;2094479;28;20044;-45
2022/09/21 02:55:33;;;;;;;9.07;5.90;;;;;;;23.65;47.80;98755.03;2094954;28;20044;-47
2022/09/21 02:56:36;;;;;;;6.55;5.15;;;;;;;23.65;47.97;98763.16;2095046;28;20055;-46
2022/09/21 02:57:37;;;;;;;9.23;6.70;;;;;;;23.67;47.60;98763.75;2093018;28;20056;-47
2022/09/21 02:58:43;;;;;;;8.02;5.25;;;;;;;23.68;47.80;98759.16;2089965;28;20051;-47
2022/09/21 02:59:44;;;;;;;8.57;5.72;;;;;;;23.64;47.69;98758.81;2093861;28;20059;-47
2022/09/21 03:00:46;;;;;;;8.25;4.50;;;;;;;23.66;47.82;98756.69;2096460;28;20452;-46
2022/09/21 03:01:48;;;;;;;9.68;6.20;;;;;;;23.66;47.69;98755.88;2096218;28;20075;-45
2022/09/21 03:02:50;;;;;;;10.02;6.18;;;;;;;23.64;47.72;98758.81;2094523;28;20059;-46
2022/09/21 03:03:51;;;;;;;8.10;5.78;;;;;;;23.65;47.61;98757.72;2096772;28;20071;-48
2022/09/21 03:04:54;;;;;;;10.10;6.25;;;;;;;23.66;47.65;98756.69;2093536;28;20131;-46
2022/09/21 03:05:54;;;;;;;9.23;6.32;;;;;;;23.65;47.69;98760.44;2095121;28;20346;-48
2022/09/21 03:06:56;;;;;;;8.32;4.55;;;;;;;23.65;47.64;98760.44;2095361;28;20135;-46
2022/09/21 03:07:57;;;;;;;11.55;5.82;;;;;;;23.62;47.71;98758.19;2094300;28;20075;-45
2022/09/21 03:08:59;;;;;;;9.90;6.28;;;;;;;23.64;47.61;98758.81;2096322;28;20104;-46
2022/09/21 03:10:00;;;;;;;7.43;5.20;;;;;;;23.64;47.83;98764.22;2096954;28;20076;-46
2022/09/21 03:11:01;;;;;;;7.40;5.05;;;;;;;23.61;47.92;98751.97;2099432;28;20041;-48
2022/09/21 03:12:02;;;;;;;9.63;5.93;;;;;;;23.59;47.96;98756.78;2095119;28;20158;-48
2022/09/21 03:13:04;;;;;;;8.20;5.38;;;;;;;23.63;47.82;98757.16;2089285;28;20052;-45
2022/09/21 03:14:07;;;;;;;7.05;5.47;;;;;;;23.62;47.79;98755.50;2095103;28;20052;-46
2022/09/21 03:15:09;;;;;;;8.18;5.13;;;;;;;23.63;47.90;98757.16;2092131;28;20055;-45
2022/09/21 03:16:11;;;;;;;7.38;5.32;;;;;;;23.63;47.77;98762.59;2093269;28;20814;-47
2022/09/21 03:17:14;;;;;;;8.00;5.50;;;;;;;23.62;47.79;98759.06;2094456;28;20132;-47
2022/09/21 03:18:15;;;;;;;6.45;4.95;;;;;;;23.60;47.64;98757.63;2095353;28;20118;-46
2022/09/21 03:19:17;;;;;;;8.27;5.90;;;;;;;23.61;47.82;98770.09;2096912;28;20047;-47
2022/09/21 03:20:18;;;;;;;7.88;5.05;;;;;;;23.60;47.82;98763.06;2092358;28;20048;-46
2022/09/21 03:21:20;;;;;;;9.05;5.82;;;;;;;23.62;47.68;98755.50;2095530;28;20064;-47
2022/09/21 03:22:21;;;;;;;8.13;5.05;;;;;;;23.63;47.74;98762.59;2094325;28;20053;-48
2022/09/21 03:23:23;;;;;;;8.02;5.07;;;;;;;23.60;47.71;98765.75;2097057;28;20054;-46
2022/09/21 03:25:45;;;;;;;7.25;4.32;;;;;;;23.59;47.70;98761.38;2094897;28;20552;-49
2022/09/21 03:26:46;;;;;;;6.70;4.95;;;;;;;23.60;47.82;98757.63;2095121;28;20055;-46
2022/09/21 03:27:52;;;;;;;7.88;4.35;;;;;;;23.60;47.76;98758.47;2095000;28;20048;-46
2022/09/21 03:28:53;;;;;;;8.63;5.55;;;;;;;23.59;47.70;98761.38;2089520;28;20056;-46
2022/09/21 03:29:55;;;;;;;6.60;4.80;;;;;;;23.60;47.80;98763.06;2094956;28;20496;-47
2022/09/21 03:30:56;;;;;;;7.60;4.50;;;;;;;23.60;47.80;98769.28;2096170;28;20048;-45
2022/09/21 03:31:57;;;;;;;7.00;4.95;;;;;;;23.56;48.05;98761.84;2091914;28;20113;-46
2022/09/21 03:32:59;;;;;;;6.25;4.68;;;;;;;23.57;47.81;98763.53;2081673;28;20557;-47
2022/09/21 03:34:01;;;;;;;8.15;4.75;;;;;;;23.54;48.09;98763.97;2092779;28;20112;-48
2022/09/21 03:35:03;;;;;;;5.93;4.43;;;;;;;23.54;48.08;98769.38;2094532;28;20056;-45
2022/09/21 03:36:05;;;;;;;5.25;4.05;;;;;;;23.56;47.83;98767.25;2096140;28;20767;-48
2022/09/21 03:37:09;;;;;;;8.02;5.35;;;;;;;23.60;47.86;98769.28;2095035;28;20048;-47
2022/09/21 03:38:10;;;;;;;6.78;4.72;;;;;;;23.56;47.89;98765.38;2096226;28;20048;-45
2022/09/21 03:39:12;;;;;;;6.95;4.85;;;;;;;23.60;47.79;98769.28;2092198;28;20055;-47
2022/09/21 03:40:14;;;;;;;8.38;4.93;;;;;;;23.61;47.82;98770.09;2097840;28;20048;-46
2022/09/21 03:41:15;;;;;;;8.70;4.88;;;;;;;23.59;47.92;98766.78;2092405;28;20052;-46
2022/09/21 03:42:16;;;;;;;7.20;5.07;;;;;;;23.59;47.91;98772.22;2090950;28;20143;-47
2022/09/21 03:43:18;;;;;;;6.15;4.38;;;;;;;23.55;47.76;98774.56;2092996;28;20506;-45
2022/09/21 03:44:19;;;;;;;7.60;5.18;;;;;;;23.55;48.06;98771.03;2096230;28;20055;-45
2022/09/21 03:45:21;;;;;;;7.57;4.68;;;;;;;23.53;47.74;98779.38;2096136;28;20155;-47
2022/09/21 03:46:21;;;;;;;7.05;4.57;;;;;;;23.56;47.89;98778.09;2094504;28;20533;-46
2022/09/21 03:47:23;;;;;;;4.80;3.95;;;;;;;23.52;47.91;98777.75;2094150;28;20119;-46
2022/09/21 03:48:25;;;;;;;6.93;4.95;;;;;;;23.53;47.88;98778.56;2097140;28;20593;-46
2022/09/21 03:49:28;;;;;;;6.97;3.97;;;;;;;23.55;47.66;98785.41;2093702;28;20072;-46
2022/09/21 03:50:29;;;;;;;7.25;4.90;;;;;;;23.56;47.92;98783.50;2095797;28;20052;-46
2022/09/21 03:51:30;;;;;;;7.10;4.55;;;;;;;23.57;47.89;98790.59;2097440;28;20072;-46
2022/09/21 03:52:32;;;;;;;7.38;5.07;;;;;;;23.52;48.08;98785.88;2095331;28;20053;-46
2022/09/21 03:53:33;;;;;;;10.85;5.40;;;;;;;23.56;48.00;98783.50;2096444;28;20517;-45
2022/09/21 03:54:34;;;;;;;6.65;4.00;;;;;;;23.54;47.77;98782.91;2098061;28;20487;-46
2022/09/21 03:55:36;;;;;;;6.65;4.57;;;;;;;23.53;47.90;98783.97;2099255;28;20044;-46
2022/09/21 03:56:36;;;;;;;7.13;4.72;;;;;;;23.56;47.85;98781.63;2095327;28;20067;-50
2022/09/21 03:57:38;;;;;;;6.28;4.50;;;;;;;23.58;47.66;98787.63;2093708;28;20048;-48
2022/09/21 03:58:40;;;;;;;6.95;4.93;;;;;;;23.56;47.71;98783.50;2093331;27;20060;-48
2022/09/21 03:59:42;;;;;;;6.47;4.30;;;;;;;23.56;47.92;98783.50;2089363;28;20060;-46
2022/09/21 04:00:42;;;;;;;5.80;4.10;;;;;;;23.54;47.89;98793.75;2091940;28;20085;-46
2022/09/21 04:01:44;;;;;;;5.43;3.80;;;;;;;23.53;47.95;98784.78;2094232;28;20712;-45
2022/09/21 04:02:45;;;;;;;7.35;4.57;;;;;;;23.56;47.87;98791.63;2094695;28;20101;-50
2022/09/21 04:03:48;;;;;;;5.40;4.50;;;;;;;23.52;48.08;98794.00;2095867;28;20114;-46
2022/09/21 04:04:49;;;;;;;6.05;4.10;;;;;;;23.51;47.88;98791.50;2092898;28;20115;-48
2022/09/21 04:05:51;;;;;;;6.50;4.97;;;;;;;23.52;48.20;98793.16;2098484;28;20635;-45
2022/09/21 04:06:51;;;;;;;6.75;4.80;;;;;;;23.53;47.83;98789.38;2093460;28;20052;-47
2022/09/21 04:07:55;;;;;;;5.22;4.38;;;;;;;23.55;47.97;98787.28;2091392;28;20825;-46
2022/09/21 04:08:55;;;;;;;5.30;4.03;;;;;;;23.54;47.85;98791.03;2095152;28;20510;-50
2022/09/21 04:09:57;;;;;;;7.47;4.25;;;;;;;23.50;48.06;98781.75;2095962;28;20044;-48
2022/09/21 04:10:59;;;;;;;6.68;4.28;;;;;;;23.54;47.98;98791.88;2094288;28;20070;-47
2022/09/21 04:12:00;;;;;;;6.50;4.35;;;;;;;23.55;47.92;98792.69;2096361;28;20041;-46
2022/09/21 04:13:03;;;;;;;6.60;4.10;;;;;;;23.54;47.88;98791.03;2091249;28;20051;-48
2022/09/21 04:14:04;;;;;;;7.00;4.45;;;;;;;23.51;47.84;98794.19;2095198;27;20072;-49
2022/09/21 04:15:07;;;;;;;5.13;4.05;;;;;;;23.53;47.84;98792.09;2093855;28;21081;-46
2022/09/21 04:16:08;;;;;;;5.75;4.07;;;;;;;23.55;47.88;98796.22;2095916;28;20073;-48
2022/09/21 04:17:10;;;;;;;5.07;3.95;;;;;;;23.53;47.80;98790.22;2094059;28;20059;-45
2022/09/21 04:18:12;;;;;;;5.97;4.38;;;;;;;23.54;47.96;98791.03;2094792;28;20608;-48
2022/09/21 04:19:15;;;;;;;5.93;4.47;;;;;;;23.54;47.82;98786.47;2091491;28;20052;-47
2022/09/21 04:20:16;;;;;;;5.90;3.95;;;;;;;23.53;48.00;98792.09;2091428;28;20040;-48
2022/09/21 04:21:18;;;;;;;6.43;4.10;;;;;;;23.54;47.66;98793.75;2093015;28;20580;-46
2022/09/21 04:22:19;;;;;;;6.30;4.07;;;;;;;23.55;47.83;98795.41;2095479;28;20501;-45
2022/09/21 04:23:21;;;;;;;5.45;3.78;;;;;;;23.53;48.05;98795.63;2095721;28;20127;-46
2022/09/21 04:24:22;;;;;;;4.43;3.28;;;;;;;23.52;47.84;98799.41;2091467;28;20048;-46
2022/09/21 04:25:24;;;;;;;5.40;4.07;;;;;;;23.52;48.00;98802.09;2090085;28;20051;-49
2022/09/21 04:26:28;;;;;;;4.88;3.45;;;;;;;23.54;47.91;98791.03;2094485;28;20147;-47
2022/09/21 04:27:29;;;;;;;6.25;4.22;;;;;;;23.52;47.97;98804.81;2093311;28;20124;-45
2022/09/21 04:28:31;;;;;;;6.55;3.65;;;;;;;23.53;48.04;98797.50;2089285;28;20054;-47
2022/09/21 04:29:33;;;;;;;6.22;4.65;;;;;;;23.53;47.91;98800.22;2089616;28;20930;-46
2022/09/21 04:30:34;;;;;;;6.05;3.95;;;;;;;23.53;47.89;98797.50;2091329;28;20101;-46
2022/09/21 04:31:36;;;;;;;5.40;3.70;;;;;;;23.55;47.86;98800.81;2095406;28;20052;-46
2022/09/21 04:32:37;;;;;;;6.05;3.97;;;;;;;23.55;47.79;98803.53;2092917;28;20094;-52
2022/09/21 04:33:40;;;;;;;7.75;4.28;;;;;;;23.56;47.96;98806.00;2089978;28;21009;-47
2022/09/21 04:34:42;;;;;;;6.05;3.72;;;;;;;23.55;47.96;98808.94;2085594;28;20052;-48
2022/09/21 04:35:44;;;;;;;5.90;4.10;;;;;;;23.52;47.82;98806.69;2086482;28;20581;-48
2022/09/21 04:36:46;;;;;;;5.28;3.72;;;;;;;23.53;48.04;98800.22;2091518;28;20105;-46
2022/09/21 04:37:48;;;;;;;6.18;4.15;;;;;;;23.52;48.12;98804.00;2093018;28;20048;-47
2022/09/21 04:38:49;;;;;;;5.47;4.03;;;;;;;23.52;47.85;98804.81;2091619;28;20173;-47
2022/09/21 04:39:51;;;;;;;6.93;4.18;;;;;;;23.52;48.02;98804.00;2088851;28;20114;-46
2022/09/21 04:40:55;;;;;;;7.20;4.45;;;;;;;23.52;48.04;98801.28;2093314;28;20047;-45
2022/09/21 04:41:57;;;;;;;5.70;3.65;;;;;;;23.51;48.16;98808.56;2095837;28;20729;-46
2022/09/21 04:42:58;;;;;;;4.78;3.75;;;;;;;23.51;48.08;98810.44;2091644;28;20056;-48
2022/09/21 04:44:00;;;;;;;8.00;4.30;;;;;;;23.52;48.10;98809.41;2093344;28;20491;-46
2022/09/21 04:45:01;;;;;;;4.93;3.20;;;;;;;23.52;48.07;98809.41;2094969;28;20647;-46
2022/09/21 04:46:07;;;;;;;8.35;4.13;;;;;;;23.52;48.11;98812.94;2096279;28;20080;-45
2022/09/21 04:47:07;;;;;;;6.47;4.28;;;;;;;23.48;48.20;98809.03;2093080;28;20056;-46
2022/09/21 04:48:09;;;;;;;4.63;3.72;;;;;;;23.51;48.11;98818.56;2090941;28;20135;-46
2022/09/21 04:49:10;;;;;;;5.65;4.00;;;;;;;23.49;48.18;98818.81;2087338;27;20048;-48
2022/09/21 04:50:13;;;;;;;4.85;3.45;;;;;;;23.50;47.96;98816.94;2090651;28;20044;-47
2022/09/21 04:51:16;;;;;;;5.22;3.55;;;;;;;23.49;48.15;98818.00;2097222;28;20101;-46
2022/09/21 04:52:17;;;;;;;4.82;3.90;;;;;;;23.48;48.09;98816.31;2096568;28;20546;-47
2022/09/21 04:53:19;;;;;;;5.38;3.50;;;;;;;23.47;48.32;98818.22;2097393;28;20094;-46
2022/09/21 04:54:20;;;;;;;6.45;3.75;;;;;;;23.46;48.19;98815.72;2096606;28;20101;-48
2022/09/21 04:55:22;;;;;;;4.95;3.58;;;;;;;23.49;48.23;98818.00;2092236;28;20048;-45
2022/09/21 04:56:22;;;;;;;5.60;3.63;;;;;;;23.50;48.04;98828.56;2092375;28;20128;-46
2022/09/21 04:57:24;;;;;;;4.53;2.75;;;;;;;23.49;48.23;98826.94;2088191;28;21113;-46
2022/09/21 04:58:25;;;;;;;4.25;3.28;;;;;;;23.49;48.22;98820.69;2096462;28;20276;-46
2022/09/21 04:59:27;;;;;;;4.80;3.22;;;;;;;23.49;48.05;98831.53;2094096;28;20151;-46
2022/09/21 05:00:28;;;;;;;7.13;4.30;;;;;;;23.49;48.19;98828.81;2094815;28;20079;-45
2022/09/21 05:01:30;;;;;;;5.13;3.55;;;;;;;23.48;47.92;98824.44;2091407;28;20127;-45